Time;durP1;ratioP1;P1;durP2;ratioP2;P2;SDS_P1;SDS_P2;PMS_P1;PMS_P2;Temp;Humidity;BMP_temperature;BMP_pressure;BME280_temperature;BME280_humidity;BME280_pressure;Samples;Min_cycle;Max_cycle;Signal;HPM_P1;HPM_P2
2024/01/08 04:58:12;;;;;;;24.52;12.23;;;-3.90;99.90;;;;;;7616307;19;20362;-77
2024/01/08 05:00:45;;;;;;;23.60;12.70;;;-4.00;99.90;;;;;;7606789;19;20011;-76
2024/01/08 05:03:17;;;;;;;26.50;12.43;;;-4.00;99.90;;;;;;7608397;19;20022;-76
2024/01/08 05:05:49;;;;;;;24.80;12.93;;;-3.90;99.90;;;;;;7609414;19;20730;-76
2024/01/08 05:08:22;;;;;;;25.60;13.05;;;-3.90;99.90;;;;;;7609811;19;22308;-77
2024/01/08 05:10:54;;;;;;;25.17;12.70;;;-3.80;99.90;;;;;;7614999;19;20022;-76
2024/01/08 05:13:27;;;;;;;27.35;13.32;;;-3.70;99.90;;;;;;7609108;19;20021;-78
2024/01/08 05:16:00;;;;;;;27.13;12.80;;;-3.50;99.90;;;;;;7607127;19;20010;-77
2024/01/08 05:18:32;;;;;;;24.15;12.27;;;-3.50;99.90;;;;;;7605827;19;20085;-76
2024/01/08 05:21:05;;;;;;;25.13;13.07;;;-3.40;99.90;;;;;;7620194;19;20938;-76
2024/01/08 05:23:37;;;;;;;23.77;13.10;;;-3.40;99.90;;;;;;7615089;19;20021;-77
2024/01/08 05:26:10;;;;;;;23.52;12.65;;;-3.40;99.90;;;;;;7611972;19;20018;-77
2024/01/08 05:28:43;;;;;;;23.23;11.48;;;-3.40;99.90;;;;;;7613503;19;20918;-77
2024/01/08 05:31:15;;;;;;;21.13;11.67;;;-3.40;99.90;;;;;;7609117;19;20014;-75
2024/01/08 05:33:49;;;;;;;21.77;11.13;;;-3.50;99.90;;;;;;7611571;19;20938;-76
2024/01/08 05:36:21;;;;;;;23.80;12.30;;;-3.50;99.90;;;;;;7616699;19;20283;-76
2024/01/08 05:38:54;;;;;;;23.98;12.00;;;-3.50;99.90;;;;;;7602014;19;20431;-78
2024/01/08 05:41:26;;;;;;;21.17;11.13;;;-3.60;99.90;;;;;;7614060;19;20021;-77
2024/01/08 05:43:59;;;;;;;23.10;11.77;;;-3.60;99.90;;;;;;7603503;19;20010;-77
2024/01/08 05:46:32;;;;;;;22.70;11.20;;;-3.60;99.90;;;;;;7603832;19;20049;-80
2024/01/08 05:49:04;;;;;;;21.92;11.70;;;-3.60;99.90;;;;;;7631883;19;20025;-82
2024/01/08 05:51:37;;;;;;;23.70;11.18;;;-3.60;99.90;;;;;;7618414;19;20423;-73
2024/01/08 05:54:09;;;;;;;21.77;12.20;;;-3.50;99.90;;;;;;7608048;19;20021;-72
2024/01/08 05:56:42;;;;;;;25.35;12.90;;;-3.60;99.90;;;;;;7613667;19;20519;-72
2024/01/08 05:59:14;;;;;;;20.83;11.80;;;-3.50;99.90;;;;;;7618779;19;20377;-73
2024/01/08 06:01:46;;;;;;;22.35;12.38;;;-3.50;99.90;;;;;;7591392;19;20022;-72
2024/01/08 06:04:19;;;;;;;23.05;13.23;;;-3.40;99.90;;;;;;7606708;19;20026;-73
2024/01/08 06:06:52;;;;;;;24.17;12.80;;;-3.40;99.90;;;;;;7602715;19;20633;-74
2024/01/08 06:09:24;;;;;;;20.50;12.40;;;-3.40;99.90;;;;;;7568905;19;20014;-74
2024/01/08 06:11:58;;;;;;;26.48;13.68;;;-3.40;99.90;;;;;;7560885;19;20905;-71
2024/01/08 06:14:30;;;;;;;27.23;11.82;;;-3.40;99.90;;;;;;7544139;19;20017;-72
2024/01/08 06:17:03;;;;;;;22.65;11.75;;;-3.40;99.90;;;;;;7544817;19;20090;-71
2024/01/08 06:19:36;;;;;;;23.55;12.63;;;-3.40;99.90;;;;;;7579054;19;20046;-72
2024/01/08 06:22:09;;;;;;;29.27;12.40;;;-3.40;99.90;;;;;;7570977;19;20014;-71
2024/01/08 06:24:41;;;;;;;25.37;12.90;;;-3.40;99.90;;;;;;7559710;19;20059;-72
2024/01/08 06:27:14;;;;;;;22.35;12.25;;;-3.30;99.90;;;;;;7575135;19;20305;-72
2024/01/08 06:29:46;;;;;;;26.10;13.15;;;-3.30;99.90;;;;;;7564054;19;20010;-73
2024/01/08 06:32:18;;;;;;;24.58;12.30;;;-3.40;99.90;;;;;;7539385;19;20364;-72
2024/01/08 06:34:51;;;;;;;23.27;12.53;;;-3.40;99.90;;;;;;7569750;19;20551;-73
2024/01/08 06:37:24;;;;;;;25.27;11.77;;;-3.40;99.90;;;;;;7574756;19;20086;-73
2024/01/08 06:39:56;;;;;;;23.85;12.55;;;-3.40;99.90;;;;;;7594361;19;20014;-72
2024/01/08 06:42:28;;;;;;;25.70;13.75;;;-3.40;99.90;;;;;;7596976;19;20022;-72
2024/01/08 06:45:18;;;;;;;23.17;12.32;;;-3.40;99.90;;;;;;7593573;19;20029;-71
2024/01/08 06:47:50;;;;;;;24.63;12.75;;;-3.40;99.90;;;;;;7588805;19;20061;-71
2024/01/08 06:50:23;;;;;;;23.58;13.48;;;-3.30;99.90;;;;;;7594235;19;20017;-73
2024/01/08 06:52:56;;;;;;;22.35;12.63;;;-3.30;99.90;;;;;;7586725;19;20021;-72
2024/01/08 06:55:28;;;;;;;23.77;13.20;;;-3.30;99.90;;;;;;7580236;19;20106;-71
2024/01/08 06:58:00;;;;;;;23.10;12.90;;;-3.30;99.90;;;;;;7587383;19;20026;-73
2024/01/08 07:00:33;;;;;;;22.95;12.85;;;-3.30;99.90;;;;;;7574559;19;20018;-73
2024/01/08 07:03:05;;;;;;;22.20;12.75;;;-3.20;99.90;;;;;;7587598;19;20014;-73
2024/01/08 07:05:37;;;;;;;21.77;11.63;;;-3.30;99.90;;;;;;7588988;19;20007;-72
2024/01/08 07:08:10;;;;;;;26.13;12.52;;;-3.30;99.90;;;;;;7587205;19;20021;-74
2024/01/08 07:10:42;;;;;;;25.10;13.73;;;-3.30;99.90;;;;;;7587378;19;20022;-74
2024/01/08 07:13:18;;;;;;;25.30;12.63;;;-3.30;99.90;;;;;;7592582;19;20014;-72
2024/01/08 07:15:50;;;;;;;32.45;14.00;;;-3.30;99.90;;;;;;7590322;19;20051;-73
2024/01/08 07:18:23;;;;;;;25.10;13.70;;;-3.30;99.90;;;;;;7587606;19;20018;-72
2024/01/08 07:20:55;;;;;;;24.52;12.73;;;-3.30;99.90;;;;;;7592384;19;20082;-71
2024/01/08 07:23:28;;;;;;;25.23;12.90;;;-3.30;99.90;;;;;;7593616;19;20062;-72
2024/01/08 07:26:01;;;;;;;31.55;13.75;;;-3.30;99.90;;;;;;7588736;19;20022;-72
2024/01/08 07:28:33;;;;;;;26.87;14.83;;;-3.30;99.90;;;;;;7588088;19;20061;-72
2024/01/08 07:31:05;;;;;;;26.73;13.93;;;-3.30;99.90;;;;;;7593174;19;22458;-72
2024/01/08 07:33:37;;;;;;;25.17;12.55;;;-3.30;99.90;;;;;;7592287;19;20023;-73
2024/01/08 07:36:10;;;;;;;27.05;13.73;;;-3.40;99.90;;;;;;7589273;19;20503;-72
2024/01/08 07:38:42;;;;;;;29.65;14.20;;;-3.30;99.90;;;;;;7587442;19;21400;-73
2024/01/08 07:41:15;;;;;;;26.10;13.65;;;-3.30;99.90;;;;;;7587705;19;20044;-74
2024/01/08 07:43:47;;;;;;;26.30;13.82;;;-3.20;99.90;;;;;;7586304;19;22774;-73
2024/01/08 07:46:20;;;;;;;27.83;14.10;;;-3.20;99.90;;;;;;7589597;19;20022;-75
2024/01/08 07:48:53;;;;;;;28.47;13.77;;;-3.20;99.90;;;;;;7582984;19;20606;-74
2024/01/08 07:51:25;;;;;;;29.83;14.50;;;-3.10;99.90;;;;;;7585898;19;20052;-74
2024/01/08 07:53:57;;;;;;;26.23;13.75;;;-3.00;99.90;;;;;;7589693;19;20836;-73
2024/01/08 07:56:30;;;;;;;28.50;13.38;;;-3.00;99.90;;;;;;7585682;19;20206;-74
2024/01/08 07:59:02;;;;;;;27.80;14.25;;;-3.10;99.90;;;;;;7585192;19;20109;-74
2024/01/08 08:01:35;;;;;;;26.40;14.50;;;-3.10;99.90;;;;;;7585909;19;20014;-73
2024/01/08 08:04:08;;;;;;;31.25;15.07;;;-3.10;99.90;;;;;;7579194;19;20348;-74
2024/01/08 08:06:40;;;;;;;25.77;13.93;;;-3.00;99.90;;;;;;7589297;19;20648;-73
2024/01/08 08:09:15;;;;;;;27.67;14.15;;;-3.00;99.90;;;;;;7591443;19;20066;-74
2024/01/08 08:11:48;;;;;;;26.35;12.77;;;-3.00;99.90;;;;;;7574515;19;20916;-74
2024/01/08 08:14:20;;;;;;;32.58;15.68;;;-3.00;99.90;;;;;;7594495;19;20955;-75
2024/01/08 08:16:53;;;;;;;25.70;14.05;;;-3.00;99.90;;;;;;7579799;19;20022;-74
2024/01/08 08:19:26;;;;;;;25.13;13.93;;;-3.00;99.90;;;;;;7590040;19;20018;-73
2024/01/08 08:21:59;;;;;;;30.42;14.32;;;-2.90;99.90;;;;;;7576998;19;20762;-74
2024/01/08 08:24:31;;;;;;;24.75;13.68;;;-2.80;99.90;;;;;;7589922;19;20035;-74
2024/01/08 08:27:03;;;;;;;28.92;14.95;;;-2.90;99.90;;;;;;7582436;19;21125;-74
2024/01/08 08:29:45;;;;;;;29.13;14.93;;;-2.80;99.90;;;;;;7588259;19;20589;-73
2024/01/08 08:32:17;;;;;;;31.73;13.90;;;-2.80;99.90;;;;;;7592811;19;20014;-74
2024/01/08 08:34:50;;;;;;;25.90;14.80;;;-2.80;99.90;;;;;;7583795;19;20025;-74
2024/01/08 08:37:22;;;;;;;28.77;14.02;;;-2.90;99.90;;;;;;7592396;19;20014;-73
2024/01/08 08:40:12;;;;;;;27.70;13.65;;;-2.90;99.90;;;;;;7587518;19;20023;-74
2024/01/08 08:42:44;;;;;;;25.27;13.30;;;-2.90;99.90;;;;;;7587432;19;20029;-74
2024/01/08 08:45:17;;;;;;;30.77;16.27;;;-2.90;99.90;;;;;;7590568;19;20675;-74
2024/01/08 08:47:50;;;;;;;27.75;14.40;;;-2.80;99.90;;;;;;7571982;19;20074;-72
2024/01/08 08:50:23;;;;;;;26.73;14.00;;;-2.90;99.90;;;;;;7595206;19;20579;-74
2024/01/08 08:52:56;;;;;;;27.67;13.55;;;-2.90;99.90;;;;;;7576415;19;20059;-74
2024/01/08 08:55:28;;;;;;;25.77;13.98;;;-3.00;99.90;;;;;;7592883;19;20022;-74
2024/01/08 08:58:01;;;;;;;23.45;13.27;;;-3.00;99.90;;;;;;7580466;19;20125;-72
2024/01/08 09:00:33;;;;;;;29.05;14.20;;;-3.00;99.90;;;;;;7590915;19;20023;-72
2024/01/08 09:03:05;;;;;;;28.52;14.45;;;-3.00;99.90;;;;;;7584900;19;20022;-72
2024/01/08 09:05:38;;;;;;;28.40;14.87;;;-3.00;99.90;;;;;;7591407;19;20025;-72
2024/01/08 09:08:17;;;;;;;30.38;15.35;;;-2.90;99.90;;;;;;7588556;19;20015;-72
2024/01/08 09:10:50;;;;;;;34.03;14.90;;;-2.90;99.90;;;;;;7585363;19;20602;-72
2024/01/08 09:13:22;;;;;;;27.85;14.93;;;-2.90;99.90;;;;;;7590052;19;20014;-73
2024/01/08 09:15:54;;;;;;;27.83;13.20;;;-2.90;99.90;;;;;;7579197;19;20019;-71
2024/01/08 09:18:27;;;;;;;28.70;14.60;;;-2.80;99.90;;;;;;7581508;19;20048;-77
2024/01/08 09:20:59;;;;;;;27.98;14.52;;;-2.80;99.90;;;;;;7578154;19;20018;-75
2024/01/08 09:23:31;;;;;;;24.17;11.57;;;-2.60;99.90;;;;;;7584640;19;20039;-76
2024/01/08 09:26:04;;;;;;;23.43;12.13;;;-2.60;99.90;;;;;;7583210;19;20085;-76
2024/01/08 09:28:36;;;;;;;28.15;14.57;;;-2.70;99.90;;;;;;7583037;19;20293;-76
2024/01/08 09:31:09;;;;;;;28.35;15.27;;;-2.60;99.90;;;;;;7582521;19;20021;-76
2024/01/08 09:33:42;;;;;;;29.03;15.17;;;-2.50;99.90;;;;;;7568890;19;20026;-76
2024/01/08 09:36:15;;;;;;;32.60;15.45;;;-2.50;99.90;;;;;;7582911;19;20031;-76
2024/01/08 09:38:47;;;;;;;29.80;15.75;;;-2.50;99.90;;;;;;7585710;19;20044;-77
2024/01/08 09:41:21;;;;;;;29.52;14.70;;;-2.40;99.90;;;;;;7583073;19;20053;-77
2024/01/08 09:44:03;;;;;;;29.40;15.40;;;-2.30;99.90;;;;;;7580973;19;20841;-77
2024/01/08 13:35:45;;;;;;;35.00;15.88;;;-2.50;99.90;;;;;;7608269;19;20375;-79
2024/01/08 13:38:17;;;;;;;38.42;18.33;;;-2.50;99.90;;;;;;7612478;19;20811;-77
2024/01/08 13:40:51;;;;;;;32.33;15.85;;;-2.50;99.90;;;;;;7596744;19;20011;-78
2024/01/08 13:43:27;;;;;;;36.47;17.45;;;-2.50;99.90;;;;;;7596998;19;20379;-77
2024/01/08 13:46:00;;;;;;;34.30;17.38;;;-2.40;99.90;;;;;;7604040;19;20046;-81
2024/01/08 13:48:32;;;;;;;32.30;16.93;;;-2.30;99.90;;;;;;7624589;19;20022;-78
2024/01/08 13:51:05;;;;;;;32.15;15.75;;;-2.10;99.90;;;;;;7617545;19;20271;-79
2024/01/08 13:53:39;;;;;;;31.35;15.68;;;-2.10;99.90;;;;;;7609339;19;20014;-77
2024/01/08 13:56:11;;;;;;;30.30;14.77;;;-2.10;99.90;;;;;;7618075;19;20010;-77
2024/01/08 13:58:44;;;;;;;30.93;15.90;;;-2.10;99.90;;;;;;7602757;19;20712;-79
2024/01/08 14:01:16;;;;;;;30.80;15.77;;;-2.10;99.90;;;;;;7590031;19;20018;-78
2024/01/08 14:03:49;;;;;;;29.85;15.45;;;-2.00;99.90;;;;;;7592356;19;20046;-78
2024/01/08 14:06:21;;;;;;;31.67;16.48;;;-2.00;99.90;;;;;;7584413;19;20014;-79
2024/01/08 14:08:54;;;;;;;30.65;16.70;;;-1.90;99.90;;;;;;7587276;19;20029;-80
2024/01/08 14:11:26;;;;;;;31.52;16.83;;;-1.90;99.90;;;;;;7574847;19;21861;-81
2024/01/08 14:13:59;;;;;;;27.42;14.88;;;-1.90;99.90;;;;;;7600058;19;20021;-80
2024/01/08 14:16:32;;;;;;;31.20;15.85;;;-2.00;99.90;;;;;;7597677;19;20041;-79
2024/01/08 14:19:05;;;;;;;32.35;15.57;;;-2.00;99.90;;;;;;7584553;19;20225;-79
2024/01/08 14:21:38;;;;;;;26.70;13.02;;;-2.20;99.90;;;;;;7582261;19;20014;-78
2024/01/08 14:24:11;;;;;;;34.03;16.75;;;-2.20;99.90;;;;;;7550312;19;20119;-78
2024/01/08 14:26:44;;;;;;;30.10;15.60;;;-2.20;99.90;;;;;;7578786;19;20331;-78
2024/01/08 14:29:16;;;;;;;31.23;15.07;;;-2.20;99.90;;;;;;7572567;19;20026;-80
2024/01/08 14:31:49;;;;;;;32.72;16.35;;;-2.20;99.90;;;;;;7603843;19;20014;-79
2024/01/08 14:34:25;;;;;;;34.50;17.05;;;-2.10;99.90;;;;;;7598456;19;20202;-78
2024/01/08 14:36:57;;;;;;;32.42;16.77;;;-2.20;99.90;;;;;;7597923;19;20052;-80
2024/01/08 14:39:33;;;;;;;33.15;16.33;;;-2.20;99.90;;;;;;7580227;19;20047;-78
2024/01/08 14:42:06;;;;;;;32.17;15.95;;;-2.20;99.90;;;;;;7577811;19;20946;-78
2024/01/08 14:44:42;;;;;;;30.37;16.30;;;-2.20;99.90;;;;;;7575351;19;20705;-78
2024/01/08 14:47:17;;;;;;;29.77;15.88;;;-2.20;99.90;;;;;;7542421;19;20402;-78
2024/01/08 14:49:51;;;;;;;32.88;16.38;;;-2.20;99.90;;;;;;7559885;19;20022;-79
2024/01/08 14:52:24;;;;;;;36.00;16.30;;;-2.20;99.90;;;;;;7576150;19;20018;-78
2024/01/08 14:54:57;;;;;;;29.52;15.93;;;-2.20;99.90;;;;;;7570580;19;20736;-78
2024/01/08 14:57:31;;;;;;;31.53;14.97;;;-2.10;99.90;;;;;;7557205;19;20014;-80
2024/01/08 15:00:07;;;;;;;28.63;15.00;;;-2.20;99.90;;;;;;7531499;19;20636;-79
2024/01/08 15:02:40;;;;;;;35.20;17.40;;;-2.20;99.90;;;;;;7574952;19;20499;-80
2024/01/08 15:05:13;;;;;;;32.13;15.23;;;-2.20;99.90;;;;;;7568559;19;20019;-80
2024/01/08 15:07:45;;;;;;;34.90;15.65;;;-2.30;99.90;;;;;;7569562;19;20024;-78
2024/01/08 15:10:18;;;;;;;33.13;18.30;;;-2.30;99.90;;;;;;7566839;19;20017;-79
2024/01/08 15:12:51;;;;;;;;;;;-2.30;99.90;;;;;;7560573;19;20015;-80
2024/01/08 15:15:24;;;;;;;26.63;14.32;;;-2.40;99.90;;;;;;7573618;19;21376;-81
2024/01/08 15:17:57;;;;;;;;;;;-2.30;99.90;;;;;;7576833;19;20366;-80
2024/01/08 15:20:31;;;;;;;31.60;15.15;;;-2.40;99.90;;;;;;7561572;19;21523;-80
2024/01/08 15:23:04;;;;;;;30.13;15.77;;;-2.40;99.90;;;;;;7575809;19;20014;-80
2024/01/08 15:25:36;;;;;;;31.60;15.60;;;-2.40;99.90;;;;;;7529002;19;20025;-77
2024/01/08 15:28:09;;;;;;;34.77;16.33;;;-2.40;99.90;;;;;;7548491;19;20022;-79
2024/01/08 15:30:41;;;;;;;35.38;15.98;;;-2.40;99.90;;;;;;7579299;19;21198;-79
2024/01/08 15:33:14;;;;;;;34.78;16.45;;;-2.50;99.90;;;;;;7569814;19;20475;-79
2024/01/08 15:35:47;;;;;;;26.27;14.18;;;-2.50;99.90;;;;;;7557331;19;20059;-78
2024/01/08 15:38:20;;;;;;;31.52;15.65;;;-2.40;99.90;;;;;;7566773;19;20106;-81
2024/01/08 15:40:53;;;;;;;33.00;16.13;;;-2.50;99.90;;;;;;7569919;19;20019;-78
2024/01/08 15:43:25;;;;;;;29.35;15.05;;;-2.50;99.90;;;;;;7567690;19;20462;-79
2024/01/08 15:46:06;;;;;;;28.15;14.80;;;-2.50;99.90;;;;;;7565927;19;20014;-79
2024/01/08 15:48:38;;;;;;;31.15;14.90;;;-2.50;99.90;;;;;;7559377;19;20027;-80
2024/01/08 15:51:12;;;;;;;33.47;16.75;;;-2.50;99.90;;;;;;7563599;19;20022;-80
2024/01/08 15:53:44;;;;;;;36.63;16.08;;;-2.50;99.90;;;;;;7564958;19;20021;-80
2024/01/08 15:56:23;;;;;;;30.37;14.43;;;-2.50;99.90;;;;;;7570193;19;20019;-82
2024/01/08 15:58:57;;;;;;;36.78;16.30;;;-2.50;99.90;;;;;;7533605;19;20026;-78
2024/01/08 16:01:30;;;;;;;34.03;15.60;;;-2.50;99.90;;;;;;7573408;19;20026;-78
2024/01/08 16:04:02;;;;;;;32.75;16.27;;;-2.50;99.90;;;;;;7576219;19;20011;-81
2024/01/08 16:06:35;;;;;;;34.90;16.17;;;-2.50;99.90;;;;;;7572425;19;20020;-80
2024/01/08 16:09:08;;;;;;;35.45;16.70;;;-2.60;99.90;;;;;;7573636;19;22172;-81
2024/01/08 16:11:40;;;;;;;37.88;17.58;;;-2.60;99.90;;;;;;7583206;19;20039;-80
2024/01/08 16:14:12;;;;;;;35.38;16.30;;;-2.60;99.90;;;;;;7587381;19;20018;-79
2024/01/08 16:16:45;;;;;;;34.03;17.20;;;-2.50;99.90;;;;;;7579129;19;20478;-79
2024/01/08 16:19:17;;;;;;;35.40;17.53;;;-2.60;99.90;;;;;;7569148;19;20071;-80
2024/01/08 16:21:50;;;;;;;38.25;18.48;;;-2.50;99.90;;;;;;7569703;19;20014;-82
2024/01/08 16:24:22;;;;;;;45.50;20.43;;;-2.60;99.90;;;;;;7568018;19;20455;-81
2024/01/08 16:26:56;;;;;;;42.83;18.77;;;-2.60;99.90;;;;;;7571523;19;20283;-78
2024/01/08 16:29:28;;;;;;;34.58;16.85;;;-2.60;99.90;;;;;;7580872;19;22144;-79
2024/01/08 16:32:01;;;;;;;40.05;17.77;;;-2.60;99.90;;;;;;7580753;19;20081;-78
2024/01/08 16:34:33;;;;;;;46.50;19.90;;;-2.60;99.90;;;;;;7575254;19;20015;-78
2024/01/08 16:37:20;;;;;;;39.35;19.02;;;-2.70;99.90;;;;;;7581535;19;20022;-79
2024/01/08 16:39:53;;;;;;;46.90;21.88;;;-2.70;99.90;;;;;;7585929;19;20006;-78
2024/01/08 16:42:25;;;;;;;40.83;19.50;;;-2.60;99.90;;;;;;7583625;19;20020;-78
2024/01/08 16:44:57;;;;;;;46.08;18.88;;;-2.60;99.90;;;;;;7589037;19;20791;-80
2024/01/08 16:47:30;;;;;;;44.80;20.13;;;-2.60;99.90;;;;;;7559691;19;20014;-77
2024/01/08 16:50:02;;;;;;;44.20;20.80;;;-2.60;99.90;;;;;;7567270;19;20282;-77
2024/01/08 16:52:35;;;;;;;69.32;25.83;;;-2.60;99.90;;;;;;7557046;19;20224;-78
2024/01/08 16:55:07;;;;;;;44.85;21.33;;;-2.50;99.90;;;;;;7579168;19;20010;-78
2024/01/08 16:57:40;;;;;;;45.65;19.92;;;-2.50;99.90;;;;;;7569732;19;20556;-79
2024/01/08 17:00:13;;;;;;;45.03;20.00;;;-2.60;99.90;;;;;;7578389;19;21216;-80
2024/01/08 17:02:45;;;;;;;49.60;20.98;;;-2.60;99.90;;;;;;7572988;19;20682;-78
2024/01/08 17:05:18;;;;;;;42.67;19.67;;;-2.60;99.90;;;;;;7576410;19;20247;-78
2024/01/08 17:07:50;;;;;;;42.90;18.77;;;-2.60;99.90;;;;;;7584500;19;20019;-77
2024/01/08 17:10:23;;;;;;;44.75;21.52;;;-2.50;99.90;;;;;;7590480;19;20019;-77
2024/01/08 17:12:55;;;;;;;45.50;20.25;;;-2.50;99.90;;;;;;7585780;19;20052;-80
2024/01/08 17:15:27;;;;;;;40.42;18.50;;;-2.60;99.90;;;;;;7588762;19;20017;-80
2024/01/08 17:18:00;;;;;;;43.28;20.75;;;-2.50;99.90;;;;;;7619443;19;21034;-79
2024/01/08 17:20:33;;;;;;;41.97;19.98;;;-2.50;99.90;;;;;;7610944;19;20018;-79
2024/01/08 17:23:05;;;;;;;41.70;18.65;;;-2.50;99.90;;;;;;7608381;19;20231;-78
2024/01/08 17:25:37;;;;;;;42.10;18.25;;;-2.50;99.90;;;;;;7586975;19;20812;-78
2024/01/08 17:28:11;;;;;;;44.38;20.05;;;-2.60;99.90;;;;;;7591233;19;20019;-79
2024/01/08 17:30:43;;;;;;;38.85;18.13;;;-2.60;99.90;;;;;;7581776;19;20533;-78
2024/01/08 17:33:16;;;;;;;52.90;23.70;;;-2.60;99.90;;;;;;7590539;19;20480;-79
2024/01/08 17:35:49;;;;;;;57.38;27.02;;;-2.60;99.90;;;;;;7594683;19;20015;-78
2024/01/08 17:38:21;;;;;;;42.88;19.38;;;-2.60;99.90;;;;;;7595419;19;20366;-79
2024/01/08 17:40:54;;;;;;;77.90;37.63;;;-2.60;99.90;;;;;;7590396;19;20011;-78
2024/01/08 17:43:26;;;;;;;78.63;37.22;;;-2.60;99.90;;;;;;7585873;19;22110;-79
2024/01/08 17:45:58;;;;;;;67.10;32.65;;;-2.70;99.90;;;;;;7595663;19;21700;-80
2024/01/08 17:48:31;;;;;;;62.90;30.45;;;-2.70;99.90;;;;;;7588153;19;20014;-80
2024/01/08 17:51:04;;;;;;;132.00;63.42;;;-2.70;99.90;;;;;;7603120;19;20523;-79
2024/01/08 17:53:36;;;;;;;49.13;23.63;;;-2.70;99.90;;;;;;7603554;19;20082;-77
2024/01/08 17:56:09;;;;;;;58.42;27.80;;;-2.70;99.90;;;;;;7606533;19;20271;-79
2024/01/08 17:58:42;;;;;;;49.92;24.33;;;-2.70;99.90;;;;;;7612549;19;20098;-78
2024/01/08 18:01:17;;;;;;;46.00;22.92;;;-2.70;99.90;;;;;;7614541;19;20022;-78
2024/01/08 18:03:50;;;;;;;40.17;19.30;;;-2.80;99.90;;;;;;7613335;19;20712;-78
2024/01/08 18:06:22;;;;;;;40.97;18.45;;;-2.70;99.90;;;;;;7622122;19;20110;-78
2024/01/08 18:08:55;;;;;;;40.57;18.57;;;-2.70;99.90;;;;;;7617581;19;20014;-78
2024/01/08 18:11:27;;;;;;;42.90;19.83;;;-2.70;99.90;;;;;;7601376;19;20331;-80
2024/01/08 18:14:00;;;;;;;50.60;22.87;;;-2.70;99.90;;;;;;7602883;19;20021;-78
2024/01/08 18:16:34;;;;;;;40.90;19.35;;;-2.70;99.90;;;;;;7601372;19;20019;-80
2024/01/08 18:19:06;;;;;;;42.53;20.10;;;-2.70;99.90;;;;;;7609427;19;20026;-79
2024/01/08 18:21:41;;;;;;;46.37;21.90;;;-2.70;99.90;;;;;;7617109;19;20021;-80
2024/01/08 18:24:14;;;;;;;44.97;21.23;;;-2.80;99.90;;;;;;7103044;19;10001000;-80
2024/01/08 18:27:03;;;;;;;43.47;19.40;;;-2.80;99.90;;;;;;7624592;19;20032;-80
2024/01/08 18:29:36;;;;;;;44.42;20.90;;;-2.70;99.90;;;;;;7620077;19;20010;-79
2024/01/08 18:32:09;;;;;;;42.33;19.73;;;-2.70;99.90;;;;;;7626106;19;20688;-79
2024/01/08 18:34:41;;;;;;;42.78;19.98;;;-2.80;99.90;;;;;;7634128;19;20009;-78
2024/01/08 18:37:14;;;;;;;46.33;19.23;;;-2.80;99.90;;;;;;7629015;19;20887;-80
2024/01/08 18:39:46;;;;;;;49.37;20.97;;;-2.80;99.90;;;;;;7635725;19;20022;-78
2024/01/08 18:42:18;;;;;;;45.50;19.92;;;-2.70;99.90;;;;;;7639613;19;20018;-78
2024/01/08 18:44:52;;;;;;;47.80;21.42;;;-2.80;99.90;;;;;;7640695;19;20042;-79
2024/01/08 18:47:30;;;;;;;41.95;20.35;;;-2.80;99.90;;;;;;7642621;19;20078;-80
2024/01/08 18:50:03;;;;;;;42.67;19.00;;;-2.80;99.90;;;;;;7645474;19;20471;-80
2024/01/08 18:52:35;;;;;;;43.03;21.35;;;-2.80;99.90;;;;;;7641165;19;20014;-79
2024/01/08 18:55:08;;;;;;;50.35;22.73;;;-2.90;99.90;;;;;;7635490;19;20045;-79
2024/01/08 18:57:40;;;;;;;43.72;20.60;;;-2.90;99.90;;;;;;7633401;19;20082;-79
2024/01/08 19:00:13;;;;;;;41.55;19.80;;;-2.90;99.90;;;;;;7636287;19;20174;-79
2024/01/08 19:02:46;;;;;;;43.20;20.00;;;-2.90;99.90;;;;;;7631622;19;20034;-78
2024/01/08 19:05:18;;;;;;;34.75;16.33;;;-3.10;99.90;;;;;;7629806;19;20888;-80
2024/01/08 19:07:51;;;;;;;39.53;18.45;;;-3.10;99.90;;;;;;7625706;19;20042;-78
2024/01/08 19:10:24;;;;;;;57.08;26.40;;;-3.10;99.90;;;;;;7628277;19;20033;-79
2024/01/08 19:12:56;;;;;;;44.72;21.52;;;-3.10;99.90;;;;;;7624028;19;20020;-80
2024/01/08 19:15:28;;;;;;;41.38;18.95;;;-3.10;99.90;;;;;;7628402;19;20105;-80
2024/01/08 19:18:00;;;;;;;45.70;19.95;;;-3.10;99.90;;;;;;7632109;19;20038;-78
2024/01/08 19:20:33;;;;;;;46.15;19.90;;;-3.10;99.90;;;;;;7624056;19;20046;-78
2024/01/08 19:23:06;;;;;;;64.68;29.55;;;-3.10;99.90;;;;;;7617347;19;20038;-82
2024/01/08 19:25:39;;;;;;;63.70;30.88;;;-3.10;99.90;;;;;;7619074;19;20022;-79
2024/01/08 19:28:11;;;;;;;43.17;20.00;;;-3.10;99.90;;;;;;7619680;19;20107;-81
2024/01/08 19:30:45;;;;;;;36.65;18.75;;;-3.10;99.90;;;;;;7621220;19;20014;-80
2024/01/08 19:33:18;;;;;;;38.47;18.33;;;-3.10;99.90;;;;;;7620407;19;20062;-80
2024/01/08 19:35:51;;;;;;;37.40;18.08;;;-3.20;99.90;;;;;;7616669;19;20019;-81
2024/01/08 19:38:26;;;;;;;33.90;16.33;;;-3.20;99.90;;;;;;7611348;19;20927;-81
2024/01/08 19:40:58;;;;;;;35.85;17.65;;;-3.10;99.90;;;;;;7617769;19;20007;-81
2024/01/08 19:43:31;;;;;;;39.00;19.55;;;-3.20;99.90;;;;;;7609359;19;20018;-80
2024/01/08 19:46:04;;;;;;;39.47;18.65;;;-3.30;99.90;;;;;;7614421;19;20038;-80
2024/01/08 19:48:36;;;;;;;32.55;16.40;;;-3.30;99.90;;;;;;7620177;19;20026;-82
2024/01/08 19:51:09;;;;;;;37.58;16.77;;;-3.40;99.90;;;;;;7616046;19;20044;-81
2024/01/08 19:53:42;;;;;;;30.00;13.90;;;-3.40;99.90;;;;;;7618142;19;20040;-78
2024/01/08 19:56:14;;;;;;;41.63;20.63;;;-3.50;99.90;;;;;;7611589;19;20006;-81
2024/01/08 19:58:47;;;;;;;40.53;18.17;;;-3.60;99.90;;;;;;7608624;19;20022;-80
2024/01/08 20:01:19;;;;;;;40.22;16.98;;;-3.60;99.90;;;;;;7610174;19;20016;-80
2024/01/08 20:03:51;;;;;;;37.30;17.63;;;-3.70;99.90;;;;;;7601040;19;20866;-80
2024/01/08 20:06:25;;;;;;;36.45;17.52;;;-3.80;99.90;;;;;;7606180;19;20006;-81
2024/01/08 20:08:58;;;;;;;34.67;16.85;;;-3.80;99.90;;;;;;7608532;19;20290;-79
2024/01/08 20:11:30;;;;;;;35.97;17.85;;;-3.80;99.90;;;;;;7608998;19;20591;-79
2024/01/08 20:14:02;;;;;;;36.27;17.03;;;-3.80;99.90;;;;;;7601747;19;20014;-80
2024/01/08 20:16:35;;;;;;;40.03;17.55;;;-3.90;99.90;;;;;;7607234;19;20366;-80
2024/01/08 20:19:08;;;;;;;36.80;17.00;;;-3.90;99.90;;;;;;7600321;19;20109;-79
2024/01/08 20:21:41;;;;;;;39.53;18.80;;;-3.80;99.90;;;;;;7603752;19;20023;-80
2024/01/08 20:24:14;;;;;;;39.20;18.40;;;-3.80;99.90;;;;;;7591492;19;20051;-82
2024/01/08 20:26:47;;;;;;;43.40;18.40;;;-3.80;99.90;;;;;;7587984;19;20011;-77
2024/01/08 20:29:19;;;;;;;37.25;18.13;;;-3.80;99.90;;;;;;7596232;19;20147;-80
2024/01/08 20:31:51;;;;;;;42.60;19.10;;;-3.80;99.90;;;;;;7588601;19;20123;-78
2024/01/08 20:34:24;;;;;;;38.13;16.70;;;-3.80;99.90;;;;;;7601204;19;20015;-81
2024/01/08 20:36:56;;;;;;;43.42;18.17;;;-3.80;99.90;;;;;;7590351;19;20556;-79
2024/01/08 20:39:29;;;;;;;41.17;18.42;;;-3.70;99.90;;;;;;7591404;19;20568;-79
2024/01/08 20:42:02;;;;;;;38.85;17.55;;;-3.70;99.90;;;;;;7591961;19;20343;-81
